Terminal Aerodrome Forecast
Issued by NWS Tampa Bay Area, FL

Home | Current Version | Previous Version | Text Only | Print | Product List | Glossary On
Versions: 1 2 3 4 5 6 7 8 9 10 11 12 13 14 15 16 17 18 19 20 21 22 23 24 25 26 27 28 29 30
012
FTUS42 KTBW 061121 AAB
TAFTPA
TAF AMD
KTPA 061121Z 0611/0712 02008KT P6SM BKN035
     FM061700 36006KT P6SM OVC020
     FM061900 35007KT P6SM VCSH SCT010 OVC020
     FM070000 34011KT P6SM VCSH SCT005 OVC010
     FM070100 34011KT P6SM SCT010 OVC100
     FM071000 34011G16KT P6SM FEW060 SCT250=

USA.gov is the U.S. government's official web portal to all federal, state and local government web resources and services.